sensor_id;sensor_type;location;lat;lon;timestamp;temperature;humidity
19033;DHT22;9649;51.042;13.804;2022-12-15T00:02:31;-5.70;99.90
19033;DHT22;9649;51.042;13.804;2022-12-15T00:07:52;-5.40;99.90
19033;DHT22;9649;51.042;13.804;2022-12-15T00:13:12;-5.20;99.90
19033;DHT22;9649;51.042;13.804;2022-12-15T00:18:35;-5.10;99.90
19033;DHT22;9649;51.042;13.804;2022-12-15T00:23:55;-5.30;99.90
19033;DHT22;9649;51.042;13.804;2022-12-15T00:29:16;-5.50;99.90
19033;DHT22;9649;51.042;13.804;2022-12-15T00:34:37;-5.60;99.90
19033;DHT22;9649;51.042;13.804;2022-12-15T00:39:58;-5.40;99.90
19033;DHT22;9649;51.042;13.804;2022-12-15T00:45:05;-5.60;99.90
19033;DHT22;9649;51.042;13.804;2022-12-15T00:50:09;-5.80;99.90
19033;DHT22;9649;51.042;13.804;2022-12-15T00:55:30;-5.70;99.90
19033;DHT22;9649;51.042;13.804;2022-12-15T01:00:51;-5.40;99.90
19033;DHT22;9649;51.042;13.804;2022-12-15T01:06:15;-5.30;99.90
19033;DHT22;9649;51.042;13.804;2022-12-15T01:11:36;-5.60;99.90
19033;DHT22;9649;51.042;13.804;2022-12-15T01:16:56;-5.80;99.90
19033;DHT22;9649;51.042;13.804;2022-12-15T01:22:18;-5.70;99.90
19033;DHT22;9649;51.042;13.804;2022-12-15T01:27:21;-5.40;99.90
19033;DHT22;9649;51.042;13.804;2022-12-15T01:32:24;-5.70;99.90
19033;DHT22;9649;51.042;13.804;2022-12-15T01:37:29;-5.90;99.90
19033;DHT22;9649;51.042;13.804;2022-12-15T01:42:32;-6.00;99.90
19033;DHT22;9649;51.042;13.804;2022-12-15T01:47:35;-5.90;99.90
19033;DHT22;9649;51.042;13.804;2022-12-15T01:52:39;-5.70;99.90
19033;DHT22;9649;51.042;13.804;2022-12-15T01:57:42;-5.40;99.90
19033;DHT22;9649;51.042;13.804;2022-12-15T02:02:47;-5.10;99.90
19033;DHT22;9649;51.042;13.804;2022-12-15T02:07:51;-4.90;99.90
19033;DHT22;9649;51.042;13.804;2022-12-15T02:13:02;-4.80;99.90
19033;DHT22;9649;51.042;13.804;2022-12-15T02:18:11;-4.40;99.90
19033;DHT22;9649;51.042;13.804;2022-12-15T02:23:56;-4.30;99.90
19033;DHT22;9649;51.042;13.804;2022-12-15T02:29:10;-4.10;99.90
19033;DHT22;9649;51.042;13.804;2022-12-15T02:34:21;-4.20;99.90
19033;DHT22;9649;51.042;13.804;2022-12-15T02:39:28;-4.20;99.90
19033;DHT22;9649;51.042;13.804;2022-12-15T02:44:33;-4.40;99.90
19033;DHT22;9649;51.042;13.804;2022-12-15T02:49:48;-4.70;99.90
19033;DHT22;9649;51.042;13.804;2022-12-15T02:55:03;-5.10;99.90
19033;DHT22;9649;51.042;13.804;2022-12-15T03:00:10;-5.30;99.90
19033;DHT22;9649;51.042;13.804;2022-12-15T03:05:15;-5.10;99.90
19033;DHT22;9649;51.042;13.804;2022-12-15T03:10:22;-5.00;99.90
19033;DHT22;9649;51.042;13.804;2022-12-15T03:15:25;-4.90;99.90
19033;DHT22;9649;51.042;13.804;2022-12-15T03:20:37;-4.90;99.90
19033;DHT22;9649;51.042;13.804;2022-12-15T03:25:40;-4.80;99.90
19033;DHT22;9649;51.042;13.804;2022-12-15T03:30:43;-4.70;99.90
19033;DHT22;9649;51.042;13.804;2022-12-15T03:35:52;-4.80;99.90
19033;DHT22;9649;51.042;13.804;2022-12-15T03:40:55;-4.80;99.90
19033;DHT22;9649;51.042;13.804;2022-12-15T03:45:58;-4.90;99.90
19033;DHT22;9649;51.042;13.804;2022-12-15T03:51:02;-4.90;99.90
19033;DHT22;9649;51.042;13.804;2022-12-15T03:56:06;-4.90;99.90
19033;DHT22;9649;51.042;13.804;2022-12-15T04:01:10;-5.00;99.90
19033;DHT22;9649;51.042;13.804;2022-12-15T04:06:14;-5.00;99.90
19033;DHT22;9649;51.042;13.804;2022-12-15T04:11:18;-5.10;99.90
19033;DHT22;9649;51.042;13.804;2022-12-15T04:16:20;-5.10;99.90
19033;DHT22;9649;51.042;13.804;2022-12-15T04:21:25;-5.10;99.90
19033;DHT22;9649;51.042;13.804;2022-12-15T04:26:27;-5.30;99.90
19033;DHT22;9649;51.042;13.804;2022-12-15T04:31:50;-5.30;99.90
19033;DHT22;9649;51.042;13.804;2022-12-15T04:37:13;-5.30;99.90
19033;DHT22;9649;51.042;13.804;2022-12-15T04:42:35;-5.30;99.90
19033;DHT22;9649;51.042;13.804;2022-12-15T04:47:55;-5.50;99.90
19033;DHT22;9649;51.042;13.804;2022-12-15T04:53:18;-6.00;99.90
19033;DHT22;9649;51.042;13.804;2022-12-15T04:58:38;-6.20;99.90
19033;DHT22;9649;51.042;13.804;2022-12-15T05:03:59;-6.20;99.90
19033;DHT22;9649;51.042;13.804;2022-12-15T05:09:20;-6.20;99.90
19033;DHT22;9649;51.042;13.804;2022-12-15T05:14:41;-6.10;99.90
19033;DHT22;9649;51.042;13.804;2022-12-15T05:20:02;-6.00;99.90
19033;DHT22;9649;51.042;13.804;2022-12-15T05:25:23;-5.80;99.90
19033;DHT22;9649;51.042;13.804;2022-12-15T05:30:44;-5.80;99.90
19033;DHT22;9649;51.042;13.804;2022-12-15T05:36:05;-5.90;99.90
19033;DHT22;9649;51.042;13.804;2022-12-15T05:41:09;-6.00;99.90
19033;DHT22;9649;51.042;13.804;2022-12-15T05:46:12;-6.10;99.90
19033;DHT22;9649;51.042;13.804;2022-12-15T05:51:16;-6.10;99.90
19033;DHT22;9649;51.042;13.804;2022-12-15T05:56:20;-6.10;99.90
19033;DHT22;9649;51.042;13.804;2022-12-15T06:01:23;-6.20;99.90
19033;DHT22;9649;51.042;13.804;2022-12-15T06:06:26;-6.40;99.90
19033;DHT22;9649;51.042;13.804;2022-12-15T06:11:31;-6.50;99.90
19033;DHT22;9649;51.042;13.804;2022-12-15T06:16:34;-6.70;99.90
19033;DHT22;9649;51.042;13.804;2022-12-15T06:21:50;-7.00;99.90
19033;DHT22;9649;51.042;13.804;2022-12-15T06:26:54;-6.60;99.90
19033;DHT22;9649;51.042;13.804;2022-12-15T06:31:57;-6.60;99.90
19033;DHT22;9649;51.042;13.804;2022-12-15T06:37:00;-6.50;99.90
19033;DHT22;9649;51.042;13.804;2022-12-15T06:42:04;-6.50;99.90
19033;DHT22;9649;51.042;13.804;2022-12-15T06:47:07;-6.50;99.90
19033;DHT22;9649;51.042;13.804;2022-12-15T06:52:10;-6.60;99.90
19033;DHT22;9649;51.042;13.804;2022-12-15T06:57:14;-6.70;99.90
19033;DHT22;9649;51.042;13.804;2022-12-15T07:02:17;-6.70;99.90
19033;DHT22;9649;51.042;13.804;2022-12-15T07:07:29;-6.80;99.90
19033;DHT22;9649;51.042;13.804;2022-12-15T07:12:33;-6.80;99.90
19033;DHT22;9649;51.042;13.804;2022-12-15T07:17:36;-6.90;99.90
19033;DHT22;9649;51.042;13.804;2022-12-15T07:22:39;-6.80;99.90
19033;DHT22;9649;51.042;13.804;2022-12-15T07:27:43;-6.70;99.90
19033;DHT22;9649;51.042;13.804;2022-12-15T07:32:46;-6.40;99.90
19033;DHT22;9649;51.042;13.804;2022-12-15T07:37:51;-6.40;99.90
19033;DHT22;9649;51.042;13.804;2022-12-15T07:42:55;-6.40;99.90
19033;DHT22;9649;51.042;13.804;2022-12-15T07:47:58;-6.40;99.90
19033;DHT22;9649;51.042;13.804;2022-12-15T07:53:00;-6.40;99.90
19033;DHT22;9649;51.042;13.804;2022-12-15T07:58:05;-6.20;99.90
19033;DHT22;9649;51.042;13.804;2022-12-15T08:03:07;-6.20;99.90
19033;DHT22;9649;51.042;13.804;2022-12-15T08:08:11;-5.90;99.90
19033;DHT22;9649;51.042;13.804;2022-12-15T08:13:17;-5.90;99.90
19033;DHT22;9649;51.042;13.804;2022-12-15T08:18:40;-5.90;99.90
19033;DHT22;9649;51.042;13.804;2022-12-15T08:23:43;-6.00;99.90
19033;DHT22;9649;51.042;13.804;2022-12-15T08:28:47;-6.00;99.90
19033;DHT22;9649;51.042;13.804;2022-12-15T08:33:50;-6.10;99.90
19033;DHT22;9649;51.042;13.804;2022-12-15T08:38:55;-4.60;99.90
19033;DHT22;9649;51.042;13.804;2022-12-15T08:44:00;-0.40;99.90
19033;DHT22;9649;51.042;13.804;2022-12-15T08:49:03;0.50;1.00
19033;DHT22;9649;51.042;13.804;2022-12-15T08:54:07;-0.50;4.40
19033;DHT22;9649;51.042;13.804;2022-12-15T08:59:11;-0.40;99.90
19033;DHT22;9649;51.042;13.804;2022-12-15T09:04:14;2.30;1.00
19033;DHT22;9649;51.042;13.804;2022-12-15T09:09:18;7.90;1.00
19033;DHT22;9649;51.042;13.804;2022-12-15T09:14:22;10.30;1.00
19033;DHT22;9649;51.042;13.804;2022-12-15T09:19:30;10.80;1.00
19033;DHT22;9649;51.042;13.804;2022-12-15T09:24:32;10.70;1.00
19033;DHT22;9649;51.042;13.804;2022-12-15T09:29:37;11.60;1.00
19033;DHT22;9649;51.042;13.804;2022-12-15T09:34:40;7.90;1.00
19033;DHT22;9649;51.042;13.804;2022-12-15T09:39:43;4.20;1.00
19033;DHT22;9649;51.042;13.804;2022-12-15T09:44:49;6.40;1.00
19033;DHT22;9649;51.042;13.804;2022-12-15T09:50:01;6.70;1.00
19033;DHT22;9649;51.042;13.804;2022-12-15T09:55:16;6.20;1.00
19033;DHT22;9649;51.042;13.804;2022-12-15T10:00:23;6.60;1.00
19033;DHT22;9649;51.042;13.804;2022-12-15T10:05:35;5.20;1.00
19033;DHT22;9649;51.042;13.804;2022-12-15T10:11:02;5.80;1.00
19033;DHT22;9649;51.042;13.804;2022-12-15T10:16:16;6.30;1.00
19033;DHT22;9649;51.042;13.804;2022-12-15T10:21:21;8.50;1.00
19033;DHT22;9649;51.042;13.804;2022-12-15T10:26:30;13.90;1.00
19033;DHT22;9649;51.042;13.804;2022-12-15T10:31:42;15.60;99.90
19033;DHT22;9649;51.042;13.804;2022-12-15T10:36:49;19.50;99.90
19033;DHT22;9649;51.042;13.804;2022-12-15T10:42:12;22.50;99.90
19033;DHT22;9649;51.042;13.804;2022-12-15T10:47:19;21.60;99.90
19033;DHT22;9649;51.042;13.804;2022-12-15T10:52:25;20.50;99.90
19033;DHT22;9649;51.042;13.804;2022-12-15T10:57:30;18.30;99.90
19033;DHT22;9649;51.042;13.804;2022-12-15T11:02:39;17.80;99.90
19033;DHT22;9649;51.042;13.804;2022-12-15T11:07:45;19.20;99.90
19033;DHT22;9649;51.042;13.804;2022-12-15T11:13:02;21.00;99.90
19033;DHT22;9649;51.042;13.804;2022-12-15T11:18:20;19.30;99.90
19033;DHT22;9649;51.042;13.804;2022-12-15T11:23:31;19.30;99.90
19033;DHT22;9649;51.042;13.804;2022-12-15T11:28:41;19.80;99.90
19033;DHT22;9649;51.042;13.804;2022-12-15T11:33:50;22.80;99.90
19033;DHT22;9649;51.042;13.804;2022-12-15T11:38:57;24.30;99.90
19033;DHT22;9649;51.042;13.804;2022-12-15T11:44:10;23.70;99.90
19033;DHT22;9649;51.042;13.804;2022-12-15T11:49:42;24.10;99.90
19033;DHT22;9649;51.042;13.804;2022-12-15T11:54:53;21.40;99.90
19033;DHT22;9649;51.042;13.804;2022-12-15T12:00:02;21.20;99.90
19033;DHT22;9649;51.042;13.804;2022-12-15T12:05:26;22.90;99.90
19033;DHT22;9649;51.042;13.804;2022-12-15T12:10:38;25.40;99.90
19033;DHT22;9649;51.042;13.804;2022-12-15T12:15:48;21.00;99.90
19033;DHT22;9649;51.042;13.804;2022-12-15T12:21:00;15.10;99.90
19033;DHT22;9649;51.042;13.804;2022-12-15T12:26:10;9.90;99.90
19033;DHT22;9649;51.042;13.804;2022-12-15T12:31:20;8.00;99.90
19033;DHT22;9649;51.042;13.804;2022-12-15T12:36:25;9.20;99.90
19033;DHT22;9649;51.042;13.804;2022-12-15T12:41:34;13.90;99.90
19033;DHT22;9649;51.042;13.804;2022-12-15T12:46:41;14.60;99.90
19033;DHT22;9649;51.042;13.804;2022-12-15T12:51:51;13.00;99.90
19033;DHT22;9649;51.042;13.804;2022-12-15T12:56:55;12.10;99.90
19033;DHT22;9649;51.042;13.804;2022-12-15T13:07:31;12.60;99.90
19033;DHT22;9649;51.042;13.804;2022-12-15T13:12:45;15.20;99.90
19033;DHT22;9649;51.042;13.804;2022-12-15T13:18:14;16.30;99.90
19033;DHT22;9649;51.042;13.804;2022-12-15T13:23:39;16.00;99.90
19033;DHT22;9649;51.042;13.804;2022-12-15T13:28:44;12.80;99.90
19033;DHT22;9649;51.042;13.804;2022-12-15T13:33:55;8.10;99.90
19033;DHT22;9649;51.042;13.804;2022-12-15T13:39:03;5.10;1.00
19033;DHT22;9649;51.042;13.804;2022-12-15T13:44:13;3.10;1.00
19033;DHT22;9649;51.042;13.804;2022-12-15T13:49:23;1.90;99.90
19033;DHT22;9649;51.042;13.804;2022-12-15T13:54:33;1.50;1.00
19033;DHT22;9649;51.042;13.804;2022-12-15T13:59:41;1.00;99.90
19033;DHT22;9649;51.042;13.804;2022-12-15T14:05:04;0.70;1.00
19033;DHT22;9649;51.042;13.804;2022-12-15T14:10:16;0.40;99.90
19033;DHT22;9649;51.042;13.804;2022-12-15T14:15:23;0.20;99.90
19033;DHT22;9649;51.042;13.804;2022-12-15T14:20:29;0.00;99.90
19033;DHT22;9649;51.042;13.804;2022-12-15T14:25:33;-0.20;99.90
19033;DHT22;9649;51.042;13.804;2022-12-15T14:30:37;-0.50;1.00
19033;DHT22;9649;51.042;13.804;2022-12-15T14:35:42;-0.70;99.90
19033;DHT22;9649;51.042;13.804;2022-12-15T14:40:54;-1.10;1.00
19033;DHT22;9649;51.042;13.804;2022-12-15T14:46:05;-1.00;99.90
19033;DHT22;9649;51.042;13.804;2022-12-15T14:51:10;-1.40;1.00
19033;DHT22;9649;51.042;13.804;2022-12-15T14:56:22;-1.10;1.00
19033;DHT22;9649;51.042;13.804;2022-12-15T15:01:35;-1.30;99.90
19033;DHT22;9649;51.042;13.804;2022-12-15T15:06:40;-1.30;99.90
19033;DHT22;9649;51.042;13.804;2022-12-15T15:11:52;-1.30;1.00
19033;DHT22;9649;51.042;13.804;2022-12-15T15:17:01;-2.00;99.90
19033;DHT22;9649;51.042;13.804;2022-12-15T15:22:05;-2.60;1.00
19033;DHT22;9649;51.042;13.804;2022-12-15T15:27:23;-2.90;1.00
19033;DHT22;9649;51.042;13.804;2022-12-15T15:32:26;-3.10;1.00
19033;DHT22;9649;51.042;13.804;2022-12-15T15:37:31;-3.20;1.00
19033;DHT22;9649;51.042;13.804;2022-12-15T15:42:35;-3.40;1.00
19033;DHT22;9649;51.042;13.804;2022-12-15T15:47:38;-3.50;16.40
19033;DHT22;9649;51.042;13.804;2022-12-15T15:52:41;-3.60;67.00
19033;DHT22;9649;51.042;13.804;2022-12-15T15:57:46;-3.20;1.00
19033;DHT22;9649;51.042;13.804;2022-12-15T16:02:49;-2.80;1.00
19033;DHT22;9649;51.042;13.804;2022-12-15T16:07:52;-2.90;1.00
19033;DHT22;9649;51.042;13.804;2022-12-15T16:12:59;-3.30;1.00
19033;DHT22;9649;51.042;13.804;2022-12-15T16:18:02;-3.50;1.00
19033;DHT22;9649;51.042;13.804;2022-12-15T16:23:10;-3.90;1.00
19033;DHT22;9649;51.042;13.804;2022-12-15T16:28:18;-4.10;60.50
19033;DHT22;9649;51.042;13.804;2022-12-15T16:33:21;-3.80;74.70
19033;DHT22;9649;51.042;13.804;2022-12-15T16:38:26;-3.60;1.00
19033;DHT22;9649;51.042;13.804;2022-12-15T16:43:31;-3.40;1.00
19033;DHT22;9649;51.042;13.804;2022-12-15T16:48:41;-3.70;1.00
19033;DHT22;9649;51.042;13.804;2022-12-15T16:53:44;-3.40;1.00
19033;DHT22;9649;51.042;13.804;2022-12-15T16:58:48;-3.50;1.00
19033;DHT22;9649;51.042;13.804;2022-12-15T17:04:09;-3.70;1.00
19033;DHT22;9649;51.042;13.804;2022-12-15T17:09:16;-3.90;1.00
19033;DHT22;9649;51.042;13.804;2022-12-15T17:14:22;-4.00;1.00
19033;DHT22;9649;51.042;13.804;2022-12-15T17:19:25;-4.00;1.00
19033;DHT22;9649;51.042;13.804;2022-12-15T17:24:27;-3.90;1.00
19033;DHT22;9649;51.042;13.804;2022-12-15T17:29:32;-3.90;1.00
19033;DHT22;9649;51.042;13.804;2022-12-15T17:34:35;-4.00;1.00
19033;DHT22;9649;51.042;13.804;2022-12-15T17:39:39;-4.10;1.00
19033;DHT22;9649;51.042;13.804;2022-12-15T17:44:43;-4.10;1.00
19033;DHT22;9649;51.042;13.804;2022-12-15T17:49:48;-4.20;17.20
19033;DHT22;9649;51.042;13.804;2022-12-15T17:54:51;-4.20;38.00
19033;DHT22;9649;51.042;13.804;2022-12-15T17:59:55;-4.10;1.00
19033;DHT22;9649;51.042;13.804;2022-12-15T18:04:58;-4.00;1.00
19033;DHT22;9649;51.042;13.804;2022-12-15T18:10:01;-4.00;1.00
19033;DHT22;9649;51.042;13.804;2022-12-15T18:15:15;-3.80;1.00
19033;DHT22;9649;51.042;13.804;2022-12-15T18:20:19;-4.00;1.00
19033;DHT22;9649;51.042;13.804;2022-12-15T18:25:24;-4.00;48.00
19033;DHT22;9649;51.042;13.804;2022-12-15T18:30:28;-3.90;1.00
19033;DHT22;9649;51.042;13.804;2022-12-15T18:35:34;-3.80;1.00
19033;DHT22;9649;51.042;13.804;2022-12-15T18:40:38;-3.60;1.00
19033;DHT22;9649;51.042;13.804;2022-12-15T18:45:43;-3.50;1.00
19033;DHT22;9649;51.042;13.804;2022-12-15T18:50:47;-3.50;1.00
19033;DHT22;9649;51.042;13.804;2022-12-15T18:55:52;-3.50;1.00
19033;DHT22;9649;51.042;13.804;2022-12-15T19:00:58;-3.60;1.00
19033;DHT22;9649;51.042;13.804;2022-12-15T19:06:03;-3.50;1.00
19033;DHT22;9649;51.042;13.804;2022-12-15T19:11:13;-3.40;1.00
19033;DHT22;9649;51.042;13.804;2022-12-15T19:16:20;-3.50;1.00
19033;DHT22;9649;51.042;13.804;2022-12-15T19:21:27;-3.40;1.00
19033;DHT22;9649;51.042;13.804;2022-12-15T19:26:44;-3.20;1.00
19033;DHT22;9649;51.042;13.804;2022-12-15T19:31:48;-3.10;1.00
19033;DHT22;9649;51.042;13.804;2022-12-15T19:37:14;-3.20;1.00
19033;DHT22;9649;51.042;13.804;2022-12-15T19:43:11;-3.30;1.00
19033;DHT22;9649;51.042;13.804;2022-12-15T20:02:10;-3.30;1.00
19033;DHT22;9649;51.042;13.804;2022-12-15T20:08:02;-3.30;1.00
19033;DHT22;9649;51.042;13.804;2022-12-15T20:13:44;-3.40;1.00
19033;DHT22;9649;51.042;13.804;2022-12-15T20:19:42;-3.40;1.00
19033;DHT22;9649;51.042;13.804;2022-12-15T20:31:02;-3.60;4.30
19033;DHT22;9649;51.042;13.804;2022-12-15T20:36:25;-3.60;42.30
19033;DHT22;9649;51.042;13.804;2022-12-15T20:41:55;-3.10;1.00
19033;DHT22;9649;51.042;13.804;2022-12-15T20:47:12;-3.10;1.00
19033;DHT22;9649;51.042;13.804;2022-12-15T20:52:43;-3.20;1.00
19033;DHT22;9649;51.042;13.804;2022-12-15T20:58:01;-3.40;1.00
19033;DHT22;9649;51.042;13.804;2022-12-15T21:03:26;-3.50;1.00
19033;DHT22;9649;51.042;13.804;2022-12-15T21:08:41;-3.60;16.60
19033;DHT22;9649;51.042;13.804;2022-12-15T21:13:47;-3.50;1.00
19033;DHT22;9649;51.042;13.804;2022-12-15T21:18:57;-3.50;1.00
19033;DHT22;9649;51.042;13.804;2022-12-15T21:24:23;-3.40;1.00
19033;DHT22;9649;51.042;13.804;2022-12-15T21:29:27;-3.50;1.00
19033;DHT22;9649;51.042;13.804;2022-12-15T21:34:30;-3.30;1.00
19033;DHT22;9649;51.042;13.804;2022-12-15T21:39:35;-3.20;1.00
19033;DHT22;9649;51.042;13.804;2022-12-15T21:55:33;-3.10;1.00
19033;DHT22;9649;51.042;13.804;2022-12-15T22:35:30;-3.30;1.00
19033;DHT22;9649;51.042;13.804;2022-12-15T22:40:33;-3.30;1.00
19033;DHT22;9649;51.042;13.804;2022-12-15T22:45:45;-3.30;1.00
19033;DHT22;9649;51.042;13.804;2022-12-15T22:51:32;-2.90;1.00
19033;DHT22;9649;51.042;13.804;2022-12-15T22:56:38;-3.10;1.00
19033;DHT22;9649;51.042;13.804;2022-12-15T23:01:44;-3.20;1.00
19033;DHT22;9649;51.042;13.804;2022-12-15T23:06:49;-3.10;1.00
19033;DHT22;9649;51.042;13.804;2022-12-15T23:11:52;-2.90;1.00
19033;DHT22;9649;51.042;13.804;2022-12-15T23:16:56;-2.90;1.00
19033;DHT22;9649;51.042;13.804;2022-12-15T23:22:00;-2.80;1.00
19033;DHT22;9649;51.042;13.804;2022-12-15T23:27:03;-3.00;1.00
19033;DHT22;9649;51.042;13.804;2022-12-15T23:32:05;-3.10;1.00
19033;DHT22;9649;51.042;13.804;2022-12-15T23:37:10;-3.20;1.00
19033;DHT22;9649;51.042;13.804;2022-12-15T23:42:12;-3.10;1.00
19033;DHT22;9649;51.042;13.804;2022-12-15T23:47:15;-3.00;1.00
19033;DHT22;9649;51.042;13.804;2022-12-15T23:52:19;-2.90;1.00
19033;DHT22;9649;51.042;13.804;2022-12-15T23:57:22;-2.80;1.00
